Time;durP1;ratioP1;P1;durP2;ratioP2;P2;SDS_P1;SDS_P2;PMS_P1;PMS_P2;Temp;Humidity;BMP_temperature;BMP_pressure;BME280_temperature;BME280_humidity;BME280_pressure;Samples;Min_cycle;Max_cycle;Signal;HPM_P1;HPM_P2
2023/04/08 00:00:37;;;;;;;1.70;1.10;;;18.40;42.20;;;;;;5093952;28;20248;-72
2023/04/08 00:03:05;;;;;;;1.20;1.10;;;18.40;42.20;;;;;;5092625;28;20202;-72
2023/04/08 00:05:35;;;;;;;3.33;1.13;;;18.40;42.20;;;;;;5093594;28;20241;-72
2023/04/08 00:08:02;;;;;;;2.67;1.30;;;18.40;42.30;;;;;;5093806;28;20228;-72
2023/04/08 00:10:29;;;;;;;2.95;1.20;;;18.40;42.20;;;;;;5093865;28;20302;-72
2023/04/08 00:12:56;;;;;;;2.30;1.10;;;18.40;42.20;;;;;;5093634;28;20221;-72
2023/04/08 00:15:23;;;;;;;2.58;1.25;;;18.40;42.20;;;;;;5093628;28;20249;-72
2023/04/08 00:17:50;;;;;;;2.55;1.65;;;18.40;42.20;;;;;;5093596;28;20221;-72
2023/04/08 00:20:17;;;;;;;1.67;1.15;;;18.50;42.20;;;;;;5093689;28;20214;-72
2023/04/08 00:22:45;;;;;;;2.60;1.20;;;18.40;42.20;;;;;;5093453;28;20233;-72
2023/04/08 00:25:12;;;;;;;1.70;1.00;;;18.40;42.20;;;;;;5092993;28;20230;-72
2023/04/08 00:27:39;;;;;;;1.85;1.10;;;18.40;42.20;;;;;;5093653;28;20225;-72
2023/04/08 00:30:08;;;;;;;1.30;1.10;;;18.40;42.20;;;;;;5093295;28;20318;-72
2023/04/08 00:32:35;;;;;;;1.50;1.15;;;18.40;42.20;;;;;;5091079;28;20205;-72
2023/04/08 00:35:03;;;;;;;2.05;1.27;;;18.40;42.20;;;;;;5074165;28;20254;-72
2023/04/08 00:37:30;;;;;;;1.83;1.13;;;18.40;42.20;;;;;;5072898;28;20187;-72
2023/04/08 00:39:59;;;;;;;2.47;1.27;;;18.40;42.20;;;;;;5072658;28;20301;-72
2023/04/08 00:42:26;;;;;;;1.40;1.10;;;18.40;42.20;;;;;;5072457;28;20237;-72
2023/04/08 00:44:53;;;;;;;3.15;1.17;;;18.40;42.20;;;;;;5072749;28;20352;-72
2023/04/08 00:47:20;;;;;;;2.22;1.30;;;18.40;42.20;;;;;;5072688;28;20230;-72
2023/04/08 00:49:47;;;;;;;1.70;1.20;;;18.40;42.20;;;;;;5072815;28;20281;-72
2023/04/08 00:52:14;;;;;;;1.88;1.33;;;18.40;42.20;;;;;;5072373;28;20234;-72
2023/04/08 00:54:42;;;;;;;1.35;0.93;;;18.40;42.20;;;;;;5071911;28;20260;-72
2023/04/08 00:57:10;;;;;;;1.77;1.05;;;18.40;42.20;;;;;;5072742;28;20222;-72
2023/04/08 00:59:38;;;;;;;2.00;1.20;;;18.40;42.20;;;;;;5072330;28;20246;-72
2023/04/08 01:02:12;;;;;;;1.90;1.20;;;18.30;42.80;;;;;;5071040;28;20689;-72
2023/04/08 01:04:48;;;;;;;0.90;0.80;;;18.40;42.30;;;;;;5072621;28;20253;-72
2023/04/08 01:07:18;;;;;;;3.67;1.30;;;18.40;42.20;;;;;;5072511;28;20218;-72
2023/04/08 01:09:48;;;;;;;1.25;1.10;;;18.30;42.20;;;;;;5071280;28;20268;-72
2023/04/08 01:12:21;;;;;;;1.38;1.00;;;18.30;42.20;;;;;;5071310;28;20225;-72
2023/04/08 01:14:50;;;;;;;1.95;1.17;;;18.40;42.30;;;;;;5072740;28;20215;-72
2023/04/08 01:17:19;;;;;;;2.20;1.10;;;18.30;42.20;;;;;;5072386;28;20233;-72
2023/04/08 01:19:47;;;;;;;1.75;1.20;;;18.30;42.20;;;;;;5072087;28;20250;-72
2023/04/08 01:22:25;;;;;;;1.27;0.90;;;18.30;42.20;;;;;;5072022;28;20664;-72
2023/04/08 01:24:59;;;;;;;1.63;1.17;;;18.30;42.30;;;;;;5072038;28;20265;-72
2023/04/08 01:27:30;;;;;;;2.10;1.30;;;18.30;42.20;;;;;;5072437;28;20628;-72
2023/04/08 01:29:59;;;;;;;1.20;1.08;;;18.30;42.30;;;;;;5071873;28;20660;-72
2023/04/08 01:32:27;;;;;;;1.83;1.10;;;18.30;42.30;;;;;;5072061;28;20186;-72
2023/04/08 01:34:56;;;;;;;1.48;1.10;;;18.30;42.30;;;;;;5072331;28;20644;-72
2023/04/08 01:37:25;;;;;;;1.73;1.00;;;18.30;42.20;;;;;;5071887;28;20703;-72
2023/04/08 01:39:54;;;;;;;1.85;1.00;;;18.30;42.30;;;;;;5071877;28;20257;-72
2023/04/08 01:42:22;;;;;;;3.30;1.20;;;18.30;42.30;;;;;;5071784;28;20605;-72
2023/04/08 01:44:52;;;;;;;2.08;1.10;;;18.30;42.30;;;;;;5072092;28;20253;-72
2023/04/08 01:47:19;;;;;;;2.75;1.10;;;18.30;42.30;;;;;;5071871;28;20704;-72
2023/04/08 01:49:47;;;;;;;1.30;1.02;;;18.30;42.30;;;;;;5072040;28;20262;-72
2023/04/08 01:52:16;;;;;;;1.15;1.05;;;18.30;42.30;;;;;;5072034;28;20191;-72
2023/04/08 01:54:43;;;;;;;1.73;1.23;;;18.30;42.30;;;;;;5071998;28;20273;-72
2023/04/08 01:57:14;;;;;;;1.77;1.10;;;18.30;42.30;;;;;;5072028;28;20222;-72
2023/04/08 01:59:42;;;;;;;2.38;1.20;;;18.30;42.30;;;;;;5071984;28;20580;-72
2023/04/08 02:02:12;;;;;;;2.13;1.02;;;18.30;42.30;;;;;;5070399;28;20219;-72
2023/04/08 02:04:39;;;;;;;2.13;1.10;;;18.30;42.30;;;;;;5072019;28;20215;-72
2023/04/08 02:07:06;;;;;;;2.38;0.98;;;18.30;42.40;;;;;;5072528;28;20234;-72
2023/04/08 02:09:33;;;;;;;2.38;1.50;;;18.30;42.40;;;;;;5074524;28;20656;-72
2023/04/08 02:12:00;;;;;;;2.58;1.00;;;18.20;42.30;;;;;;5075346;28;20673;-72
2023/04/08 02:14:28;;;;;;;2.00;1.13;;;18.20;42.30;;;;;;5075700;28;20211;-72
2023/04/08 02:17:02;;;;;;;3.95;1.00;;;18.20;42.30;;;;;;5075640;28;20650;-72
2023/04/08 02:19:36;;;;;;;1.67;1.27;;;18.30;42.40;;;;;;5075547;28;20225;-72
2023/04/08 02:22:09;;;;;;;2.10;1.10;;;18.20;42.30;;;;;;5075148;28;20567;-72
2023/04/08 02:24:38;;;;;;;1.02;0.90;;;18.20;42.40;;;;;;5074872;28;20231;-72
2023/04/08 02:27:06;;;;;;;2.45;1.30;;;18.20;42.40;;;;;;5075730;28;20320;-72
2023/04/08 02:29:34;;;;;;;3.80;1.20;;;18.20;42.40;;;;;;5075158;28;20250;-72
2023/04/08 02:32:04;;;;;;;2.33;1.30;;;18.20;42.40;;;;;;5075217;28;20285;-72
2023/04/08 02:34:35;;;;;;;1.60;1.02;;;18.20;42.40;;;;;;5074051;28;20223;-72
2023/04/08 02:37:02;;;;;;;1.85;1.30;;;18.20;42.40;;;;;;5075250;28;20183;-72
2023/04/08 02:39:33;;;;;;;1.73;1.20;;;18.20;42.40;;;;;;5074871;28;20253;-72
2023/04/08 02:42:00;;;;;;;2.22;1.38;;;18.20;42.40;;;;;;5073923;28;20230;-72
2023/04/08 02:44:27;;;;;;;4.28;1.15;;;18.20;42.40;;;;;;5074681;28;20647;-72
2023/04/08 02:46:54;;;;;;;2.40;1.40;;;18.20;42.40;;;;;;5074831;28;20229;-72
2023/04/08 02:49:21;;;;;;;3.03;1.50;;;18.20;42.40;;;;;;5074757;28;20187;-72
2023/04/08 02:51:50;;;;;;;3.17;1.40;;;18.20;42.50;;;;;;5074702;28;20225;-72
2023/04/08 02:54:17;;;;;;;1.90;1.55;;;18.20;42.50;;;;;;5074949;28;20226;-72
2023/04/08 02:56:44;;;;;;;2.08;1.42;;;18.20;42.50;;;;;;5073408;28;20218;-72
2023/04/08 02:59:11;;;;;;;1.50;1.20;;;18.20;42.50;;;;;;5074833;28;20223;-72
2023/04/08 03:01:38;;;;;;;2.97;1.35;;;18.20;42.60;;;;;;5074797;28;20226;-72
2023/04/08 03:04:05;;;;;;;1.95;1.30;;;18.20;42.50;;;;;;5073170;28;20327;-72
2023/04/08 03:06:32;;;;;;;1.52;1.27;;;18.20;42.60;;;;;;5074778;28;20248;-72
2023/04/08 03:09:01;;;;;;;2.55;1.40;;;18.20;42.60;;;;;;5074620;28;20215;-72
2023/04/08 03:11:28;;;;;;;3.60;1.45;;;18.20;42.60;;;;;;5074529;28;20277;-72
2023/04/08 03:13:55;;;;;;;2.50;1.30;;;18.20;43.20;;;;;;5074279;28;20229;-72
2023/04/08 03:16:22;;;;;;;2.50;1.27;;;18.20;42.60;;;;;;5074514;28;20219;-72
2023/04/08 03:18:50;;;;;;;6.43;1.70;;;18.10;42.50;;;;;;5073975;28;20222;-72
2023/04/08 03:21:17;;;;;;;2.00;1.30;;;18.20;42.70;;;;;;5074335;28;20580;-72
2023/04/08 03:23:44;;;;;;;4.50;1.58;;;18.10;42.60;;;;;;5074032;28;20559;-72
2023/04/08 03:26:13;;;;;;;3.33;1.45;;;18.10;42.60;;;;;;5074057;28;20720;-72
2023/04/08 03:28:40;;;;;;;4.93;1.70;;;18.10;42.60;;;;;;5074621;28;20222;-72
2023/04/08 03:31:07;;;;;;;4.28;1.60;;;18.10;42.60;;;;;;5073767;28;20226;-72
2023/04/08 03:33:34;;;;;;;3.03;1.60;;;18.10;42.70;;;;;;5074454;28;20219;-72
2023/04/08 03:36:01;;;;;;;6.65;1.73;;;18.10;42.70;;;;;;5072855;28;20280;-72
2023/04/08 03:38:28;;;;;;;3.03;1.55;;;18.10;42.70;;;;;;5074127;28;20215;-72
2023/04/08 03:40:55;;;;;;;3.67;2.15;;;18.20;42.80;;;;;;5073910;28;20249;-72
2023/04/08 03:43:25;;;;;;;4.13;1.65;;;18.10;42.70;;;;;;5073805;28;20641;-72
2023/04/08 03:45:52;;;;;;;3.92;1.52;;;18.10;42.70;;;;;;5073610;28;20214;-72
2023/04/08 03:48:19;;;;;;;2.58;1.75;;;18.10;42.70;;;;;;5073655;28;20667;-72
2023/04/08 03:50:46;;;;;;;4.78;1.52;;;18.10;42.70;;;;;;5074006;28;20289;-72
2023/04/08 03:53:13;;;;;;;4.32;1.30;;;18.10;42.70;;;;;;5073837;28;20233;-72
2023/04/08 03:55:40;;;;;;;2.20;1.38;;;18.10;42.70;;;;;;5073484;28;20246;-72
2023/04/08 03:58:07;;;;;;;2.47;1.50;;;18.10;42.70;;;;;;5073497;28;20230;-72
2023/04/08 04:00:36;;;;;;;3.95;1.70;;;18.10;42.70;;;;;;5073279;28;20264;-72
2023/04/08 04:03:03;;;;;;;4.10;1.50;;;18.00;42.70;;;;;;5073193;28;20198;-72
2023/04/08 04:05:30;;;;;;;2.50;1.60;;;18.10;42.80;;;;;;5073670;28;20250;-72
2023/04/08 04:07:57;;;;;;;2.85;1.90;;;18.10;42.80;;;;;;5073239;28;20300;-72
2023/04/08 04:10:24;;;;;;;3.97;1.63;;;18.10;42.80;;;;;;5073239;28;20692;-72
2023/04/08 04:12:52;;;;;;;3.13;1.80;;;18.10;42.80;;;;;;5073074;28;20632;-72
2023/04/08 04:15:19;;;;;;;4.32;2.00;;;18.10;42.80;;;;;;5073034;28;20693;-72
2023/04/08 04:17:50;;;;;;;4.82;2.17;;;18.10;42.80;;;;;;5073385;28;20339;-72
2023/04/08 04:20:17;;;;;;;3.53;1.60;;;18.10;42.90;;;;;;5072975;28;20727;-72
2023/04/08 04:22:44;;;;;;;2.35;1.83;;;18.10;42.90;;;;;;5073169;28;20195;-72
2023/04/08 04:25:11;;;;;;;2.70;1.95;;;18.10;42.90;;;;;;5072997;28;20325;-72
2023/04/08 04:27:38;;;;;;;3.17;1.90;;;18.10;42.90;;;;;;5073356;28;20238;-72
2023/04/08 04:30:08;;;;;;;3.50;1.77;;;18.00;42.90;;;;;;5072207;28;20215;-72
2023/04/08 04:32:35;;;;;;;4.70;1.90;;;18.00;42.90;;;;;;5072903;28;20191;-72
2023/04/08 04:35:04;;;;;;;4.15;1.70;;;18.00;42.90;;;;;;5054283;28;20218;-71
2023/04/08 04:37:31;;;;;;;2.58;1.60;;;18.00;42.90;;;;;;5072644;28;20202;-72
2023/04/08 04:39:58;;;;;;;3.45;2.10;;;18.00;42.90;;;;;;5072672;28;20655;-72
2023/04/08 04:42:25;;;;;;;3.80;1.67;;;18.00;42.90;;;;;;5072502;28;20226;-72
2023/04/08 04:44:52;;;;;;;2.33;1.83;;;18.10;43.00;;;;;;5071536;28;20297;-72
2023/04/08 04:47:20;;;;;;;3.65;1.20;;;18.10;43.00;;;;;;5072819;28;20191;-72
2023/04/08 04:49:47;;;;;;;2.80;1.52;;;18.10;42.90;;;;;;5071244;28;20257;-72
2023/04/08 04:52:15;;;;;;;3.55;1.80;;;18.00;42.90;;;;;;5071172;28;20224;-72
2023/04/08 04:54:42;;;;;;;2.58;1.60;;;18.10;42.90;;;;;;5072751;28;20257;-72
2023/04/08 04:57:10;;;;;;;3.40;1.70;;;18.10;42.90;;;;;;5072659;28;20227;-72
2023/04/08 04:59:37;;;;;;;2.78;1.70;;;18.10;42.90;;;;;;5072582;28;20183;-72
2023/04/08 05:02:05;;;;;;;3.00;1.63;;;18.20;42.90;;;;;;5071162;28;20194;-72
2023/04/08 05:04:32;;;;;;;2.47;1.50;;;18.20;42.90;;;;;;5072641;28;20187;-72
2023/04/08 05:06:59;;;;;;;3.30;1.52;;;18.30;43.00;;;;;;5072573;28;20637;-72
2023/04/08 05:09:29;;;;;;;3.63;1.70;;;18.30;42.90;;;;;;5072075;28;20229;-71
2023/04/08 05:11:56;;;;;;;2.90;1.63;;;18.30;42.90;;;;;;5072361;28;20225;-72
2023/04/08 05:14:23;;;;;;;3.90;1.67;;;18.30;42.90;;;;;;5072404;28;20613;-70
2023/04/08 05:16:50;;;;;;;1.80;1.40;;;18.30;42.90;;;;;;5071212;28;20616;-72
2023/04/08 05:19:17;;;;;;;3.00;1.40;;;18.30;42.80;;;;;;5072383;28;20214;-72
2023/04/08 05:21:44;;;;;;;2.53;1.80;;;18.40;42.90;;;;;;5072485;28;20250;-72
2023/04/08 05:24:11;;;;;;;2.42;1.65;;;18.40;42.90;;;;;;5072236;28;20233;-71
2023/04/08 05:26:40;;;;;;;4.28;1.70;;;18.40;42.80;;;;;;5072189;28;20273;-71
2023/04/08 05:29:07;;;;;;;3.38;1.60;;;18.50;42.90;;;;;;5072547;28;20195;-72
2023/04/08 05:31:34;;;;;;;3.78;1.80;;;18.50;42.80;;;;;;5072152;28;20273;-72
2023/04/08 05:34:01;;;;;;;1.75;1.38;;;18.50;42.80;;;;;;5071915;28;20684;-72
2023/04/08 05:36:28;;;;;;;2.22;1.50;;;18.50;42.80;;;;;;5072511;28;20250;-72
2023/04/08 05:38:55;;;;;;;2.30;1.63;;;18.50;42.80;;;;;;5071871;28;20657;-72
2023/04/08 05:41:22;;;;;;;2.88;1.60;;;18.60;42.80;;;;;;5071911;28;20222;-72
2023/04/08 05:43:50;;;;;;;3.08;1.48;;;18.60;42.80;;;;;;5076210;28;20222;-72
2023/04/08 05:46:17;;;;;;;2.55;1.35;;;18.70;42.80;;;;;;5076452;28;20261;-71
2023/04/08 05:48:44;;;;;;;1.42;1.10;;;18.60;43.40;;;;;;5076320;28;20187;-72
2023/04/08 05:51:14;;;;;;;3.83;1.40;;;18.70;42.80;;;;;;5076231;28;20281;-72
2023/04/08 05:53:41;;;;;;;2.00;1.30;;;18.70;42.80;;;;;;5076130;28;20241;-72
2023/04/08 05:56:08;;;;;;;2.30;1.20;;;18.70;42.80;;;;;;5075750;28;20504;-72
2023/04/08 05:58:35;;;;;;;3.47;1.40;;;18.70;42.80;;;;;;5075704;28;20606;-72
2023/04/08 06:01:05;;;;;;;2.00;1.30;;;18.80;42.80;;;;;;5074862;28;20258;-72
2023/04/08 06:03:32;;;;;;;1.75;1.23;;;18.70;42.80;;;;;;5075881;28;20210;-71
2023/04/08 06:05:59;;;;;;;2.78;1.20;;;18.80;42.80;;;;;;5075942;28;20246;-72
2023/04/08 06:08:26;;;;;;;1.80;1.40;;;18.80;42.80;;;;;;5075521;28;20227;-71
2023/04/08 06:10:53;;;;;;;2.13;1.30;;;18.90;42.80;;;;;;5075497;28;20276;-72
2023/04/08 06:13:20;;;;;;;2.88;1.63;;;18.80;42.70;;;;;;5075703;28;20455;-72
2023/04/08 06:15:49;;;;;;;4.45;1.60;;;18.80;42.70;;;;;;5075414;28;20696;-71
2023/04/08 06:18:17;;;;;;;3.28;1.45;;;18.90;42.80;;;;;;5075673;28;20187;-71
2023/04/08 06:20:45;;;;;;;2.45;1.55;;;18.90;42.70;;;;;;5075607;28;20245;-72
2023/04/08 06:23:12;;;;;;;1.77;1.45;;;18.90;42.70;;;;;;5075217;28;20545;-72
2023/04/08 06:25:39;;;;;;;2.42;1.23;;;18.90;42.70;;;;;;5075154;28;20708;-72
2023/04/08 06:28:06;;;;;;;1.83;1.23;;;18.90;42.70;;;;;;5075632;28;20237;-72
2023/04/08 06:30:33;;;;;;;2.03;1.33;;;18.90;42.60;;;;;;5074107;28;20214;-72
2023/04/08 06:33:00;;;;;;;1.80;1.10;;;18.90;42.60;;;;;;5075254;28;20324;-72
2023/04/08 06:35:29;;;;;;;5.10;1.40;;;19.00;42.70;;;;;;5074206;28;20250;-72
2023/04/08 06:37:56;;;;;;;1.95;1.15;;;19.00;42.70;;;;;;5075256;28;20191;-72
2023/04/08 06:40:23;;;;;;;2.63;1.30;;;19.00;42.60;;;;;;5074998;28;20246;-72
2023/04/08 06:42:50;;;;;;;2.20;1.20;;;19.00;42.60;;;;;;5075173;28;20190;-71
2023/04/08 06:45:17;;;;;;;3.42;1.40;;;19.00;42.60;;;;;;5075130;28;20253;-72
2023/04/08 06:47:45;;;;;;;1.88;1.23;;;19.00;42.50;;;;;;5075073;28;20218;-72
2023/04/08 06:50:12;;;;;;;1.50;1.27;;;19.10;42.60;;;;;;5075091;28;20250;-72
2023/04/08 06:52:40;;;;;;;2.53;1.30;;;19.10;42.70;;;;;;5074349;28;20698;-72
2023/04/08 06:55:08;;;;;;;1.52;1.30;;;19.10;42.60;;;;;;5074704;28;20246;-72
2023/04/08 06:57:35;;;;;;;1.60;1.20;;;19.10;42.60;;;;;;5074642;28;20362;-72
2023/04/08 07:00:02;;;;;;;2.42;1.35;;;19.10;42.60;;;;;;5074869;28;20222;-72
2023/04/08 07:02:29;;;;;;;1.83;1.23;;;19.00;42.50;;;;;;5074779;28;20191;-72
2023/04/08 07:04:56;;;;;;;1.88;1.25;;;19.10;43.20;;;;;;5073646;28;20242;-72
2023/04/08 07:07:24;;;;;;;1.73;1.27;;;19.10;42.50;;;;;;5074801;28;20238;-71
2023/04/08 07:09:52;;;;;;;3.47;1.23;;;19.10;42.50;;;;;;5074694;28;20187;-72
2023/04/08 07:12:19;;;;;;;1.55;1.20;;;19.10;42.50;;;;;;5074712;28;20257;-71
2023/04/08 07:14:46;;;;;;;2.30;1.42;;;19.10;42.50;;;;;;5074567;28;20213;-71
2023/04/08 07:17:13;;;;;;;1.30;1.17;;;19.10;42.50;;;;;;5074641;28;20223;-72
2023/04/08 07:19:40;;;;;;;1.83;1.38;;;19.20;42.60;;;;;;5074335;28;20225;-72
2023/04/08 07:22:07;;;;;;;1.95;1.38;;;19.20;42.50;;;;;;5074458;28;20199;-72
2023/04/08 07:24:35;;;;;;;2.63;1.10;;;19.20;42.50;;;;;;5073928;28;20258;-72
2023/04/08 07:27:03;;;;;;;3.03;1.20;;;19.20;42.50;;;;;;5073320;28;20245;-72
2023/04/08 07:29:30;;;;;;;1.30;1.05;;;19.20;42.50;;;;;;5074543;28;20237;-72
2023/04/08 07:31:57;;;;;;;2.17;1.27;;;19.20;42.50;;;;;;5073858;28;20833;-72
2023/04/08 07:34:24;;;;;;;1.98;1.40;;;19.20;42.50;;;;;;5073047;28;20308;-72
2023/04/08 07:36:51;;;;;;;1.80;0.95;;;19.20;42.50;;;;;;5072649;28;20254;-72
2023/04/08 07:39:18;;;;;;;2.85;1.13;;;19.20;42.50;;;;;;5074105;28;20225;-71
2023/04/08 07:41:45;;;;;;;1.70;1.00;;;19.20;42.40;;;;;;5072952;28;20211;-72
2023/04/08 07:44:15;;;;;;;1.70;1.08;;;19.20;42.40;;;;;;5073962;28;20218;-72
2023/04/08 07:46:44;;;;;;;1.83;1.20;;;19.30;42.50;;;;;;5074215;28;20219;-72
2023/04/08 07:49:11;;;;;;;2.40;1.23;;;19.30;42.50;;;;;;5073613;28;20277;-71
2023/04/08 07:51:38;;;;;;;3.42;1.35;;;19.20;42.40;;;;;;5073621;28;20233;-71
2023/04/08 07:54:05;;;;;;;1.58;1.25;;;19.30;42.50;;;;;;5073882;28;20222;-71
2023/04/08 07:56:32;;;;;;;1.55;1.08;;;19.20;42.40;;;;;;5073731;28;20253;-71
2023/04/08 07:58:59;;;;;;;1.45;1.00;;;19.30;42.40;;;;;;5073908;28;20229;-72
2023/04/08 08:01:30;;;;;;;1.38;1.00;;;19.30;42.40;;;;;;5073467;28;20229;-72
2023/04/08 08:03:57;;;;;;;2.28;1.00;;;19.30;42.40;;;;;;5073453;28;20548;-72
2023/04/08 08:06:24;;;;;;;1.70;1.30;;;19.30;42.40;;;;;;5071653;28;20254;-72
2023/04/08 08:08:51;;;;;;;2.03;1.15;;;19.30;42.40;;;;;;5073252;28;20198;-72
2023/04/08 08:11:18;;;;;;;1.65;1.05;;;19.30;42.40;;;;;;5073133;28;20215;-72
2023/04/08 08:13:45;;;;;;;2.22;1.10;;;19.30;42.40;;;;;;5073394;28;20237;-72
2023/04/08 08:16:12;;;;;;;1.80;1.10;;;19.40;42.40;;;;;;5073557;28;20218;-71
2023/04/08 08:18:41;;;;;;;1.42;1.30;;;19.30;42.30;;;;;;5073334;28;20215;-71
2023/04/08 08:21:08;;;;;;;1.90;1.10;;;19.40;42.40;;;;;;5073402;28;20218;-72
2023/04/08 08:23:36;;;;;;;1.83;1.15;;;19.30;42.30;;;;;;5072900;28;20187;-72
2023/04/08 08:26:05;;;;;;;2.10;1.20;;;19.40;42.30;;;;;;5072817;28;20736;-72
2023/04/08 08:28:32;;;;;;;1.55;1.05;;;19.40;42.30;;;;;;5073088;28;20199;-72
2023/04/08 08:30:59;;;;;;;1.88;1.20;;;19.30;42.20;;;;;;5072823;28;20703;-72
2023/04/08 08:33:26;;;;;;;2.65;1.10;;;19.40;42.30;;;;;;5072974;28;20246;-72
2023/04/08 08:35:56;;;;;;;3.22;1.10;;;19.40;42.90;;;;;;5072851;28;20662;-72
2023/04/08 08:38:24;;;;;;;1.60;1.13;;;19.40;42.30;;;;;;5073036;28;20187;-72
2023/04/08 08:40:55;;;;;;;1.38;0.90;;;19.40;42.30;;;;;;5072862;28;20222;-72
2023/04/08 08:43:22;;;;;;;1.50;1.15;;;19.40;42.20;;;;;;5072850;28;20228;-72
2023/04/08 08:45:50;;;;;;;1.15;0.90;;;19.40;42.20;;;;;;5072933;28;20253;-71
2023/04/08 08:48:17;;;;;;;1.20;0.82;;;19.40;42.20;;;;;;5072734;28;20197;-72
2023/04/08 08:50:44;;;;;;;1.52;1.00;;;19.40;42.20;;;;;;5072994;28;20218;-72
2023/04/08 08:53:13;;;;;;;1.70;1.00;;;19.40;42.20;;;;;;5072683;28;20257;-72
2023/04/08 08:55:40;;;;;;;2.15;1.00;;;19.40;42.20;;;;;;5072680;28;20783;-72
2023/04/08 08:58:07;;;;;;;1.52;1.27;;;19.40;42.10;;;;;;5072726;28;20218;-72
2023/04/08 09:00:35;;;;;;;3.15;1.27;;;19.40;42.20;;;;;;5072347;28;20235;-71
2023/04/08 09:03:24;;;;;;;2.55;1.20;;;19.40;42.10;;;;;;5072604;28;20222;-72
2023/04/08 09:05:52;;;;;;;2.13;1.02;;;19.40;42.10;;;;;;5069444;28;20222;-72
2023/04/08 09:08:30;;;;;;;2.67;1.05;;;19.40;42.10;;;;;;5072675;28;20626;-72
2023/04/08 09:11:10;;;;;;;1.73;0.90;;;19.40;42.00;;;;;;5072625;28;20210;-72
2023/04/08 09:13:37;;;;;;;1.92;1.17;;;19.40;42.10;;;;;;5072116;28;20250;-72
2023/04/08 09:16:06;;;;;;;1.73;1.08;;;19.40;42.00;;;;;;5072216;28;20265;-71
2023/04/08 09:18:33;;;;;;;1.90;1.30;;;19.40;42.00;;;;;;5072380;28;20186;-72
2023/04/08 09:21:01;;;;;;;2.70;1.35;;;19.40;42.00;;;;;;5072525;28;20253;-72
2023/04/08 09:23:43;;;;;;;2.47;1.02;;;19.40;42.00;;;;;;5072314;28;20273;-72
2023/04/08 09:26:12;;;;;;;1.10;1.00;;;19.40;42.00;;;;;;5072081;28;20266;-72
2023/04/08 09:28:41;;;;;;;1.38;0.90;;;19.50;42.10;;;;;;5072278;28;20217;-72
2023/04/08 09:31:22;;;;;;;2.03;1.05;;;19.40;42.00;;;;;;5072363;28;20243;-72
2023/04/08 09:33:49;;;;;;;3.92;1.20;;;19.40;42.00;;;;;;5072156;28;20258;-71
2023/04/08 09:36:17;;;;;;;2.03;0.93;;;19.40;41.90;;;;;;5072028;28;20645;-72
2023/04/08 09:38:46;;;;;;;1.55;1.00;;;19.50;42.00;;;;;;5072271;28;20183;-72
2023/04/08 09:41:15;;;;;;;2.60;1.10;;;19.40;41.90;;;;;;5072221;28;20218;-72
2023/04/08 09:43:48;;;;;;;1.50;0.80;;;19.40;41.90;;;;;;5072191;28;20195;-72
2023/04/08 09:46:17;;;;;;;1.60;0.98;;;19.40;41.90;;;;;;5072056;28;20218;-72
2023/04/08 09:48:50;;;;;;;2.22;1.27;;;19.40;41.90;;;;;;5072177;28;20259;-72
2023/04/08 09:51:20;;;;;;;2.35;1.05;;;19.40;41.90;;;;;;5070771;28;20224;-71
2023/04/08 09:53:58;;;;;;;2.15;1.00;;;19.40;42.50;;;;;;5070834;28;20225;-72
2023/04/08 09:56:30;;;;;;;1.42;1.17;;;19.40;41.90;;;;;;5072029;28;20257;-72
2023/04/08 09:59:00;;;;;;;2.97;0.90;;;19.40;41.80;;;;;;5072130;28;20214;-72
2023/04/08 10:01:36;;;;;;;1.17;0.98;;;19.40;41.80;;;;;;5072062;28;20616;-72
2023/04/08 10:04:05;;;;;;;2.03;1.20;;;19.40;41.80;;;;;;5072047;28;20191;-71
2023/04/08 10:06:34;;;;;;;1.63;1.20;;;19.40;41.80;;;;;;5071786;28;20250;-72
2023/04/08 10:09:03;;;;;;;2.53;1.08;;;19.40;41.80;;;;;;5071642;28;20718;-72
2023/04/08 10:11:30;;;;;;;2.28;1.00;;;19.50;41.80;;;;;;5071893;28;20260;-72
2023/04/08 10:13:58;;;;;;;1.92;1.10;;;19.40;41.70;;;;;;5070564;28;20226;-72
2023/04/08 10:16:27;;;;;;;1.83;1.00;;;19.40;41.60;;;;;;5071982;28;20219;-72
2023/04/08 10:18:55;;;;;;;4.10;1.05;;;19.50;41.70;;;;;;5071769;28;20187;-72
2023/04/08 10:21:37;;;;;;;1.40;0.80;;;19.50;41.70;;;;;;5071857;28;20222;-72
2023/04/08 10:24:09;;;;;;;1.52;0.98;;;19.50;41.70;;;;;;5070400;28;20202;-72
2023/04/08 10:26:38;;;;;;;1.70;1.00;;;19.40;41.60;;;;;;5071615;28;20225;-71
2023/04/08 10:29:30;;;;;;;1.05;0.80;;;19.40;41.70;;;;;;5074073;28;20202;-72
2023/04/08 10:31:57;;;;;;;1.55;0.95;;;19.50;41.70;;;;;;5075305;28;20226;-72
2023/04/08 10:34:26;;;;;;;1.20;0.90;;;19.50;41.70;;;;;;5075403;28;20716;-72
2023/04/08 10:36:55;;;;;;;1.80;1.00;;;19.50;41.70;;;;;;5074364;28;20453;-72
2023/04/08 10:39:26;;;;;;;1.92;1.10;;;19.40;41.60;;;;;;5075318;28;20183;-72
2023/04/08 10:41:53;;;;;;;1.10;0.70;;;19.40;41.50;;;;;;5075380;28;20214;-72
2023/04/08 10:44:21;;;;;;;1.88;1.00;;;19.50;41.60;;;;;;5075155;28;20263;-72
2023/04/08 10:46:50;;;;;;;1.30;0.90;;;19.40;41.50;;;;;;5075277;28;20257;-72
2023/04/08 10:49:18;;;;;;;1.77;0.93;;;19.40;41.40;;;;;;5074892;28;20456;-72
2023/04/08 10:51:46;;;;;;;1.67;1.02;;;19.50;41.50;;;;;;5074815;28;20250;-71
2023/04/08 10:54:15;;;;;;;2.08;1.08;;;19.40;41.40;;;;;;5075022;28;20214;-72
2023/04/08 10:56:48;;;;;;;1.52;1.10;;;19.40;41.40;;;;;;5075072;28;20214;-71
2023/04/08 10:59:16;;;;;;;1.30;1.00;;;19.40;41.40;;;;;;5074707;28;20187;-71
2023/04/08 11:01:45;;;;;;;1.25;0.80;;;19.50;41.50;;;;;;5074998;28;20254;-71
2023/04/08 11:04:14;;;;;;;2.30;1.13;;;19.50;41.40;;;;;;5074653;28;20201;-72
2023/04/08 11:06:43;;;;;;;1.00;0.80;;;19.40;41.40;;;;;;5074889;28;20214;-71
2023/04/08 11:09:10;;;;;;;1.77;0.88;;;19.40;41.30;;;;;;5074471;28;20229;-72
2023/04/08 11:11:38;;;;;;;1.25;0.90;;;19.40;41.30;;;;;;5074437;28;20606;-72
2023/04/08 11:14:06;;;;;;;3.15;1.20;;;19.50;41.40;;;;;;5074609;28;20222;-71
2023/04/08 11:16:34;;;;;;;2.22;1.00;;;19.40;41.30;;;;;;5074738;28;20218;-72
2023/04/08 11:19:04;;;;;;;1.00;0.90;;;19.50;41.30;;;;;;5074554;28;20195;-72
2023/04/08 11:21:32;;;;;;;1.83;1.15;;;19.50;41.30;;;;;;5074303;28;20718;-71
2023/04/08 11:23:59;;;;;;;2.38;1.00;;;19.50;41.20;;;;;;5074410;28;20197;-72
2023/04/08 11:26:27;;;;;;;1.80;0.90;;;19.40;41.20;;;;;;5074112;28;20789;-72
2023/04/08 11:28:56;;;;;;;1.23;0.73;;;19.50;41.20;;;;;;5074631;28;20201;-72
2023/04/08 11:31:25;;;;;;;1.95;1.08;;;19.50;41.20;;;;;;5074248;28;20306;-72
2023/04/08 11:33:55;;;;;;;0.98;0.93;;;19.50;41.20;;;;;;5074236;28;20254;-71
2023/04/08 11:36:22;;;;;;;1.27;0.95;;;19.50;41.10;;;;;;5074357;28;20582;-72
2023/04/08 11:38:50;;;;;;;1.23;1.00;;;19.40;41.00;;;;;;5073964;28;20183;-71
2023/04/08 11:41:17;;;;;;;2.58;0.90;;;19.40;41.00;;;;;;5074184;28;20264;-72
2023/04/08 11:43:55;;;;;;;2.63;0.98;;;19.50;41.10;;;;;;5072726;28;20198;-72
2023/04/08 11:46:22;;;;;;;1.67;0.82;;;19.40;41.00;;;;;;5074094;28;20226;-72
2023/04/08 11:49:01;;;;;;;2.30;0.82;;;19.40;41.00;;;;;;5072503;28;20198;-72
2023/04/08 11:51:29;;;;;;;1.42;1.00;;;19.40;41.00;;;;;;5073982;28;20643;-72
2023/04/08 11:53:57;;;;;;;3.00;0.90;;;19.40;41.00;;;;;;5073550;28;20214;-71
2023/04/08 11:56:27;;;;;;;2.22;1.10;;;19.40;41.00;;;;;;5073517;28;20637;-70
2023/04/08 11:58:54;;;;;;;4.05;1.23;;;19.50;41.20;;;;;;5073743;28;20190;-70
2023/04/08 12:01:21;;;;;;;3.50;0.85;;;19.50;41.00;;;;;;5073286;28;20696;-69
2023/04/08 12:03:56;;;;;;;2.63;1.38;;;19.50;40.90;;;;;;5073373;28;20379;-68
2023/04/08 12:09:06;;;;;;;1.70;1.20;;;19.60;40.90;;;;;;5074759;28;20221;-70
2023/04/08 12:11:33;;;;;;;2.60;1.25;;;19.60;40.80;;;;;;5082329;28;20305;-69
2023/04/08 12:14:00;;;;;;;1.33;0.90;;;19.70;41.00;;;;;;5081893;28;20774;-70
2023/04/08 12:16:27;;;;;;;1.50;1.10;;;19.70;40.90;;;;;;5088501;28;20249;-69
2023/04/08 12:18:55;;;;;;;2.08;1.13;;;19.70;40.90;;;;;;5086874;28;20222;-69
2023/04/08 12:21:25;;;;;;;2.00;1.10;;;19.70;40.90;;;;;;5053320;28;20279;-70
2023/04/08 12:23:54;;;;;;;1.35;1.15;;;19.70;41.00;;;;;;5090341;28;20217;-70
2023/04/08 12:26:21;;;;;;;2.08;1.10;;;19.80;40.80;;;;;;5050543;28;20257;-70
2023/04/08 12:28:48;;;;;;;3.17;1.17;;;19.80;40.90;;;;;;5083429;28;20695;-72
2023/04/08 12:31:15;;;;;;;4.57;1.55;;;19.90;41.00;;;;;;5082765;28;20251;-70
2023/04/08 12:33:42;;;;;;;3.45;1.30;;;19.90;41.00;;;;;;5087698;28;20267;-69
2023/04/08 12:36:09;;;;;;;2.97;1.10;;;19.90;41.00;;;;;;5089993;28;20214;-70
2023/04/08 12:38:37;;;;;;;3.28;1.33;;;19.90;40.90;;;;;;5089936;28;20243;-69
2023/04/08 12:41:06;;;;;;;2.88;1.30;;;19.90;40.80;;;;;;5089876;28;20634;-69
2023/04/08 12:43:33;;;;;;;2.58;1.02;;;19.90;40.90;;;;;;5086759;28;20321;-69
2023/04/08 12:46:02;;;;;;;4.63;1.38;;;20.00;40.90;;;;;;5085508;28;20256;-69
2023/04/08 12:48:29;;;;;;;5.47;1.30;;;19.90;40.90;;;;;;5080317;28;20201;-69
2023/04/08 12:50:57;;;;;;;4.10;1.15;;;20.00;41.00;;;;;;5080926;28;20309;-70
2023/04/08 12:53:24;;;;;;;2.45;1.30;;;20.00;41.00;;;;;;5072699;28;20669;-69
2023/04/08 12:55:55;;;;;;;3.25;1.33;;;20.00;40.90;;;;;;5082709;28;20232;-69